createdAt,value
2023-03-18T00:00:12.618Z,14.10
2023-03-18T00:02:40.423Z,14.10
2023-03-18T00:05:08.521Z,14.10
2023-03-18T00:07:37.301Z,14.10
2023-03-18T00:10:06.482Z,14.00
2023-03-18T00:12:33.426Z,14.00
2023-03-18T00:15:00.809Z,14.00
2023-03-18T00:17:27.952Z,14.00
2023-03-18T00:19:55.153Z,14.00
2023-03-18T00:22:22.601Z,14.00
2023-03-18T00:24:49.214Z,14.00
2023-03-18T00:27:16.127Z,14.00
2023-03-18T00:29:42.898Z,14.00
2023-03-18T00:32:09.834Z,14.00
2023-03-18T00:34:36.496Z,14.00
2023-03-18T00:37:03.702Z,14.00
2023-03-18T00:39:32.894Z,14.00
2023-03-18T00:42:07.959Z,14.00
2023-03-18T00:44:34.587Z,14.00
2023-03-18T00:47:01.397Z,13.90
2023-03-18T00:49:28.040Z,13.90
2023-03-18T00:51:54.947Z,13.90
2023-03-18T00:54:22.466Z,13.90
2023-03-18T00:56:49.462Z,14.00
2023-03-18T00:59:16.449Z,13.90
2023-03-18T01:01:44.344Z,13.90
2023-03-18T01:04:11.396Z,13.80
2023-03-18T01:06:39.030Z,13.80
2023-03-18T01:09:10.468Z,13.80
2023-03-18T01:11:39.261Z,13.80
2023-03-18T01:14:06.084Z,13.80
2023-03-18T01:16:32.740Z,13.80
2023-03-18T01:18:59.989Z,13.80
2023-03-18T01:21:26.694Z,13.80
2023-03-18T01:23:56.908Z,13.80
2023-03-18T01:26:26.013Z,13.80
2023-03-18T01:28:54.431Z,13.80
2023-03-18T01:31:21.761Z,13.80
2023-03-18T01:33:48.646Z,13.80
2023-03-18T01:36:15.560Z,13.80
2023-03-18T01:38:43.377Z,13.80
2023-03-18T01:41:13.059Z,13.80
2023-03-18T01:43:42.701Z,13.80
2023-03-18T01:46:43.419Z,13.80
2023-03-18T01:49:27.604Z,13.80
2023-03-18T01:51:58.959Z,13.80
2023-03-18T01:54:28.457Z,13.80
2023-03-18T01:56:57.150Z,13.80
2023-03-18T01:59:28.633Z,13.80
2023-03-18T02:02:01.832Z,13.80
2023-03-18T02:04:36.367Z,13.80
2023-03-18T02:07:03.817Z,13.80
2023-03-18T02:09:31.731Z,13.80
2023-03-18T02:12:01.683Z,13.80
2023-03-18T02:14:28.772Z,13.80
2023-03-18T02:17:01.171Z,13.80
2023-03-18T02:19:41.533Z,13.80
2023-03-18T02:22:29.669Z,13.80
2023-03-18T02:25:27.689Z,13.80
2023-03-18T02:28:01.643Z,13.80
2023-03-18T02:30:37.122Z,13.80
2023-03-18T02:33:07.313Z,13.90
2023-03-18T02:35:35.499Z,13.80
2023-03-18T02:38:04.595Z,13.80
2023-03-18T02:40:34.800Z,13.80
2023-03-18T02:43:28.079Z,13.80
2023-03-18T02:46:14.581Z,13.90
2023-03-18T02:48:44.905Z,13.90
2023-03-18T02:51:14.374Z,13.90
2023-03-18T02:53:41.710Z,13.90
2023-03-18T02:56:08.885Z,13.90
2023-03-18T02:58:36.745Z,13.80
2023-03-18T03:01:06.461Z,13.80
2023-03-18T03:03:35.018Z,13.80
2023-03-18T03:06:03.210Z,13.80
2023-03-18T03:08:30.647Z,13.80
2023-03-18T03:10:57.872Z,13.80
2023-03-18T03:13:25.638Z,13.80
2023-03-18T03:15:54.082Z,13.80
2023-03-18T03:18:21.478Z,13.80
2023-03-18T03:20:49.871Z,13.80
2023-03-18T03:23:17.518Z,13.80
2023-03-18T03:25:47.412Z,13.80
2023-03-18T03:28:16.543Z,13.80
2023-03-18T03:30:43.663Z,13.80
2023-03-18T03:33:10.931Z,13.70
2023-03-18T03:35:39.155Z,13.70
2023-03-18T03:38:06.648Z,13.70
2023-03-18T03:40:33.918Z,13.70
2023-03-18T03:43:00.772Z,13.70
2023-03-18T03:45:27.628Z,13.70
2023-03-18T03:47:54.338Z,13.70
2023-03-18T03:50:21.566Z,13.70
2023-03-18T03:52:49.134Z,13.70
2023-03-18T03:55:19.349Z,13.70
2023-03-18T03:57:46.927Z,13.70
2023-03-18T04:00:16.984Z,13.70
2023-03-18T04:02:50.011Z,13.70
2023-03-18T04:05:19.886Z,13.70
2023-03-18T04:07:47.548Z,13.70
2023-03-18T04:10:17.335Z,13.60
2023-03-18T04:12:45.792Z,13.70
2023-03-18T04:15:14.625Z,13.60
2023-03-18T04:17:43.191Z,13.60
2023-03-18T04:20:11.716Z,13.60
2023-03-18T04:22:39.596Z,13.60
2023-03-18T04:25:11.040Z,13.60
2023-03-18T04:27:39.352Z,13.60
2023-03-18T04:30:09.779Z,13.60
2023-03-18T04:32:46.542Z,13.60
2023-03-18T04:35:13.209Z,13.60
2023-03-18T04:37:39.857Z,13.60
2023-03-18T04:40:07.415Z,13.50
2023-03-18T04:42:34.986Z,13.50
2023-03-18T04:45:02.434Z,13.60
2023-03-18T04:47:29.221Z,13.60
2023-03-18T04:49:56.691Z,13.60
2023-03-18T04:52:24.373Z,13.60
2023-03-18T04:54:51.089Z,13.60
2023-03-18T04:57:18.289Z,13.60
2023-03-18T04:59:50.354Z,13.70
2023-03-18T05:02:17.074Z,13.60
2023-03-18T05:04:43.886Z,13.60
2023-03-18T05:07:15.294Z,13.50
2023-03-18T05:09:47.108Z,13.40
2023-03-18T05:12:16.018Z,13.50
2023-03-18T05:14:43.696Z,13.50
2023-03-18T05:17:17.277Z,13.50
2023-03-18T05:19:53.229Z,13.50
2023-03-18T05:22:22.752Z,13.50
2023-03-18T05:24:55.693Z,13.50
2023-03-18T05:27:24.959Z,13.60
2023-03-18T05:29:58.861Z,13.60
2023-03-18T05:32:37.016Z,13.60
2023-03-18T05:35:07.124Z,13.50
2023-03-18T05:37:43.317Z,13.50
2023-03-18T05:40:11.850Z,13.40
2023-03-18T05:42:54.897Z,13.30
2023-03-18T05:45:24.387Z,13.40
2023-03-18T05:47:54.686Z,13.40
2023-03-18T05:50:35.531Z,13.40
2023-03-18T05:53:06.200Z,13.40
2023-03-18T05:55:37.073Z,13.40
2023-03-18T05:58:04.559Z,13.40
2023-03-18T06:00:34.280Z,13.40
2023-03-18T06:03:02.871Z,13.30
2023-03-18T06:05:31.143Z,13.30
2023-03-18T06:07:58.574Z,13.30
2023-03-18T06:10:25.680Z,13.30
2023-03-18T06:12:55.244Z,13.30
2023-03-18T06:15:22.126Z,13.40
2023-03-18T06:17:50.883Z,13.40
2023-03-18T06:20:19.364Z,13.40
2023-03-18T06:22:49.574Z,13.40
2023-03-18T06:25:19.164Z,13.50
2023-03-18T06:27:46.660Z,13.50
2023-03-18T06:30:15.568Z,13.60
2023-03-18T06:32:42.872Z,13.60
2023-03-18T06:35:11.599Z,13.50
2023-03-18T06:37:39.979Z,13.50
2023-03-18T06:40:09.473Z,13.60
2023-03-18T06:42:36.690Z,13.60
2023-03-18T06:45:11.224Z,13.60
2023-03-18T06:48:00.686Z,13.60
2023-03-18T06:50:27.701Z,13.60
2023-03-18T06:52:54.633Z,13.60
2023-03-18T06:55:27.990Z,13.70
2023-03-18T06:57:56.427Z,13.70
2023-03-18T07:00:29.106Z,13.60
2023-03-18T07:02:55.730Z,13.50
2023-03-18T07:05:26.332Z,13.40
2023-03-18T07:07:54.250Z,13.30
2023-03-18T07:10:24.504Z,13.30
2023-03-18T07:12:54.241Z,13.30
2023-03-18T07:15:22.502Z,13.30
2023-03-18T07:17:54.857Z,13.30
2023-03-18T07:20:22.349Z,13.40
2023-03-18T07:22:49.370Z,13.40
2023-03-18T07:25:15.978Z,13.50
2023-03-18T07:27:42.579Z,13.50
2023-03-18T07:30:10.097Z,13.50
2023-03-18T07:32:38.319Z,13.50
2023-03-18T07:35:06.281Z,13.50
2023-03-18T07:37:33.535Z,13.50
2023-03-18T07:40:00.169Z,13.50
2023-03-18T07:42:26.788Z,13.50
2023-03-18T07:44:53.519Z,13.60
2023-03-18T07:47:20.848Z,13.60
2023-03-18T07:49:47.624Z,13.60
2023-03-18T07:52:14.887Z,13.60
2023-03-18T07:54:41.845Z,13.60
2023-03-18T07:57:08.623Z,13.50
2023-03-18T07:59:35.574Z,13.50
2023-03-18T08:02:02.721Z,13.40
2023-03-18T08:04:29.829Z,13.50
2023-03-18T08:06:57.858Z,13.60
2023-03-18T08:09:25.041Z,13.60
2023-03-18T08:11:51.603Z,13.50
2023-03-18T08:14:18.391Z,13.50
2023-03-18T08:16:45.156Z,13.50
2023-03-18T08:19:11.991Z,13.60
2023-03-18T08:21:39.682Z,13.50
2023-03-18T08:24:07.122Z,13.50
2023-03-18T08:26:34.123Z,13.50
2023-03-18T08:29:00.721Z,13.60
2023-03-18T08:31:27.586Z,13.60
2023-03-18T08:33:56.151Z,13.60
2023-03-18T08:36:23.417Z,13.70
2023-03-18T08:38:50.592Z,13.70
2023-03-18T08:41:17.516Z,13.60
2023-03-18T08:43:45.025Z,13.50
2023-03-18T08:46:11.705Z,13.60
2023-03-18T08:48:38.499Z,13.50
2023-03-18T08:51:08.112Z,13.50
2023-03-18T08:53:35.542Z,13.50
2023-03-18T08:56:03.094Z,13.60
2023-03-18T08:58:30.185Z,13.60
2023-03-18T09:00:57.075Z,13.60
2023-03-18T09:03:24.834Z,13.60
2023-03-18T09:05:53.314Z,13.60
2023-03-18T09:08:19.936Z,13.60
2023-03-18T09:10:46.829Z,13.60
2023-03-18T09:13:13.851Z,13.60
2023-03-18T09:15:42.060Z,13.60
2023-03-18T09:18:12.206Z,13.60
2023-03-18T09:20:40.254Z,13.60
2023-03-18T09:23:08.765Z,13.60
2023-03-18T09:25:35.516Z,13.70
2023-03-18T09:28:02.599Z,13.80
2023-03-18T09:30:30.143Z,13.70
2023-03-18T09:32:56.868Z,13.70
2023-03-18T09:35:24.107Z,13.80
2023-03-18T09:37:51.918Z,13.80
2023-03-18T09:40:26.405Z,13.80
2023-03-18T09:43:20.578Z,13.90
2023-03-18T09:46:00.980Z,13.90
2023-03-18T09:48:54.247Z,13.90
2023-03-18T09:51:50.134Z,13.90
2023-03-18T09:54:33.218Z,13.90
2023-03-18T09:57:00.704Z,13.90
2023-03-18T09:59:41.804Z,14.10
2023-03-18T10:02:34.879Z,14.10
2023-03-18T10:05:10.508Z,14.10
2023-03-18T10:07:42.752Z,14.00
2023-03-18T10:10:33.876Z,14.00
2023-03-18T10:13:25.794Z,14.00
2023-03-18T10:15:58.440Z,14.10
2023-03-18T10:18:32.478Z,14.10
2023-03-18T10:21:31.120Z,14.10
2023-03-18T10:24:29.210Z,14.20
2023-03-18T10:27:09.427Z,14.20
2023-03-18T10:29:43.671Z,14.20
2023-03-18T10:32:49.403Z,14.20
2023-03-18T10:35:42.156Z,14.20
2023-03-18T10:38:22.994Z,14.20
2023-03-18T10:40:49.855Z,14.10
2023-03-18T10:43:25.012Z,14.10
2023-03-18T10:46:04.201Z,14.20
2023-03-18T10:48:38.352Z,14.20
2023-03-18T10:51:25.931Z,14.20
2023-03-18T10:54:09.362Z,14.20
2023-03-18T10:56:36.503Z,14.20
2023-03-18T10:59:11.817Z,14.30
2023-03-18T11:01:39.328Z,14.30
2023-03-18T11:04:06.845Z,14.40
2023-03-18T11:06:41.686Z,14.40
2023-03-18T11:09:20.027Z,14.40
2023-03-18T11:11:55.636Z,14.40
2023-03-18T11:14:26.458Z,14.40
2023-03-18T11:17:19.106Z,14.40
2023-03-18T11:19:48.664Z,14.40
2023-03-18T11:22:24.461Z,14.50
2023-03-18T11:25:01.939Z,14.50
2023-03-18T11:27:36.379Z,14.60
2023-03-18T11:30:34.328Z,14.70
2023-03-18T11:33:12.911Z,14.70
2023-03-18T11:35:46.246Z,14.80
2023-03-18T11:38:28.576Z,15.00
2023-03-18T11:41:07.088Z,15.10
2023-03-18T11:43:34.787Z,15.10
2023-03-18T11:46:05.030Z,15.10
2023-03-18T11:48:37.854Z,15.20
2023-03-18T11:51:26.560Z,15.60
2023-03-18T11:54:09.441Z,15.40
2023-03-18T11:56:45.074Z,15.30
2023-03-18T11:59:17.995Z,15.30
2023-03-18T12:02:20.906Z,15.30
2023-03-18T12:05:16.724Z,15.40
2023-03-18T12:07:49.548Z,15.30
2023-03-18T12:10:24.690Z,15.20
2023-03-18T12:13:17.856Z,15.10
2023-03-18T12:16:06.425Z,15.10
2023-03-18T12:18:43.018Z,15.10
2023-03-18T12:21:45.874Z,15.30
2023-03-18T12:24:39.919Z,15.40
2023-03-18T12:27:12.777Z,15.50
2023-03-18T12:30:25.008Z,15.70
2023-03-18T12:32:54.453Z,15.60
2023-03-18T12:35:46.494Z,15.60
2023-03-18T12:38:42.113Z,15.60
2023-03-18T12:41:35.436Z,15.40
2023-03-18T12:44:19.466Z,15.40
2023-03-18T12:46:56.860Z,15.40
2023-03-18T12:49:29.608Z,15.30
2023-03-18T12:52:06.368Z,15.40
2023-03-18T12:54:40.430Z,15.70
2023-03-18T12:57:26.760Z,15.70
2023-03-18T12:59:59.007Z,15.60
2023-03-18T13:02:49.940Z,15.60
2023-03-18T13:05:25.080Z,15.50
2023-03-18T13:08:28.454Z,15.50
2023-03-18T13:11:05.187Z,15.40
2023-03-18T13:13:35.696Z,15.50
2023-03-18T13:16:04.210Z,15.40
2023-03-18T13:18:42.984Z,15.40
2023-03-18T13:21:14.783Z,15.60
2023-03-18T13:24:06.229Z,15.60
2023-03-18T13:26:50.558Z,15.60
2023-03-18T13:29:37.879Z,15.60
2023-03-18T13:32:26.154Z,15.40
2023-03-18T13:35:25.795Z,15.50
2023-03-18T13:38:29.798Z,15.60
2023-03-18T13:41:09.799Z,15.50
2023-03-18T13:43:49.008Z,15.60
2023-03-18T13:46:23.627Z,15.60
2023-03-18T13:49:01.408Z,15.70
2023-03-18T13:51:28.572Z,15.60
2023-03-18T13:54:00.740Z,15.50
2023-03-18T13:56:32.013Z,15.50
2023-03-18T13:59:02.894Z,15.50
2023-03-18T14:01:50.733Z,15.40
2023-03-18T14:04:49.013Z,15.40
2023-03-18T14:07:21.704Z,15.40
2023-03-18T14:10:18.234Z,15.50
2023-03-18T14:12:49.553Z,15.50
2023-03-18T14:15:16.205Z,15.40
2023-03-18T14:17:48.439Z,15.50
2023-03-18T14:20:14.988Z,15.60
2023-03-18T14:22:43.468Z,15.70
2023-03-18T14:25:13.141Z,15.80
2023-03-18T14:28:06.783Z,15.90
2023-03-18T14:30:36.892Z,15.90
2023-03-18T14:33:31.554Z,15.90
2023-03-18T14:36:09.945Z,15.90
2023-03-18T14:38:50.386Z,15.80
2023-03-18T14:41:32.647Z,15.80
2023-03-18T14:44:20.739Z,15.80
2023-03-18T14:46:51.750Z,15.80
2023-03-18T14:49:43.402Z,15.70
2023-03-18T14:52:38.661Z,15.70
2023-03-18T14:55:20.647Z,15.70
2023-03-18T14:57:47.317Z,15.60
2023-03-18T15:00:16.023Z,15.60
2023-03-18T15:02:45.140Z,15.70
2023-03-18T15:05:17.837Z,15.70
2023-03-18T15:07:49.621Z,15.70
2023-03-18T15:10:22.217Z,15.70
2023-03-18T15:13:04.485Z,15.60
2023-03-18T15:15:32.106Z,15.70
2023-03-18T15:18:15.072Z,15.80
2023-03-18T15:20:42.386Z,15.70
2023-03-18T15:23:09.354Z,15.70
2023-03-18T15:25:38.473Z,15.70
2023-03-18T15:28:06.127Z,15.70
2023-03-18T15:30:33.730Z,15.80
2023-03-18T15:33:17.055Z,15.80
2023-03-18T15:35:44.791Z,15.70
2023-03-18T15:38:16.462Z,15.70
2023-03-18T15:40:55.760Z,15.80
2023-03-18T15:43:30.408Z,15.80
2023-03-18T15:45:59.772Z,15.80
2023-03-18T15:48:40.219Z,15.80
2023-03-18T15:51:23.184Z,15.80
2023-03-18T15:53:53.451Z,15.70
2023-03-18T15:56:27.000Z,15.70
2023-03-18T15:59:12.133Z,15.70
2023-03-18T16:01:40.047Z,15.80
2023-03-18T16:04:12.184Z,15.80
2023-03-18T16:06:40.230Z,15.80
2023-03-18T16:09:21.958Z,15.80
2023-03-18T16:11:53.353Z,15.70
2023-03-18T16:14:22.569Z,15.70
2023-03-18T16:16:49.917Z,15.70
2023-03-18T16:19:24.959Z,15.80
2023-03-18T16:21:52.748Z,15.80
2023-03-18T16:24:19.618Z,15.80
2023-03-18T16:26:46.845Z,15.80
2023-03-18T16:29:27.731Z,15.80
2023-03-18T16:31:54.375Z,15.80
2023-03-18T16:34:21.910Z,15.80
2023-03-18T16:36:53.405Z,15.80
2023-03-18T16:39:27.016Z,15.80
2023-03-18T16:41:53.620Z,15.80
2023-03-18T16:44:22.446Z,15.80
2023-03-18T16:46:56.366Z,15.80
2023-03-18T16:49:41.819Z,15.80
2023-03-18T16:52:12.092Z,15.80
2023-03-18T16:54:39.317Z,15.70
2023-03-18T16:57:06.858Z,15.80
2023-03-18T16:59:35.899Z,15.70
2023-03-18T17:02:04.014Z,15.80
2023-03-18T17:04:35.601Z,15.80
2023-03-18T17:07:04.474Z,15.80
2023-03-18T17:09:31.877Z,15.80
2023-03-18T17:12:01.980Z,15.80
2023-03-18T17:14:42.283Z,15.80
2023-03-18T17:17:30.803Z,15.80
2023-03-18T17:19:59.560Z,15.80
2023-03-18T17:22:32.527Z,15.80
2023-03-18T17:25:01.251Z,15.80
2023-03-18T17:27:32.256Z,15.80
2023-03-18T17:29:58.848Z,15.80
2023-03-18T17:32:25.934Z,15.80
2023-03-18T17:34:54.211Z,15.80
2023-03-18T17:37:21.374Z,15.80
2023-03-18T17:39:47.969Z,15.80
2023-03-18T17:42:32.403Z,15.80
2023-03-18T17:45:17.861Z,15.80
2023-03-18T17:47:44.435Z,15.70
2023-03-18T17:50:17.095Z,15.70
2023-03-18T17:52:45.248Z,15.70
2023-03-18T17:55:24.529Z,15.70
2023-03-18T17:57:51.144Z,15.70
2023-03-18T18:00:27.281Z,15.80
2023-03-18T18:02:54.663Z,15.70
2023-03-18T18:05:22.897Z,15.80
2023-03-18T18:07:51.319Z,15.70
2023-03-18T18:10:20.118Z,15.70
2023-03-18T18:12:49.826Z,15.70
2023-03-18T18:15:19.673Z,15.70
2023-03-18T18:17:48.354Z,15.70
2023-03-18T18:20:17.231Z,15.70
2023-03-18T18:22:46.833Z,15.70
2023-03-18T18:25:19.663Z,15.70
2023-03-18T18:27:47.706Z,15.70
2023-03-18T18:30:19.380Z,15.70
2023-03-18T18:32:46.431Z,15.70
2023-03-18T18:35:18.819Z,15.70
2023-03-18T18:37:47.602Z,15.70
2023-03-18T18:40:16.348Z,15.70
2023-03-18T18:42:43.663Z,15.70
2023-03-18T18:45:16.571Z,15.70
2023-03-18T18:47:43.997Z,15.70
2023-03-18T18:50:19.643Z,15.60
2023-03-18T18:52:46.455Z,15.70
2023-03-18T18:55:13.137Z,15.70
2023-03-18T18:57:41.720Z,15.70
2023-03-18T19:00:26.786Z,15.70
2023-03-18T19:02:57.034Z,15.60
2023-03-18T19:05:24.075Z,15.60
2023-03-18T19:07:52.573Z,15.70
2023-03-18T19:10:19.328Z,15.60
2023-03-18T19:12:46.219Z,15.60
2023-03-18T19:15:15.492Z,15.60
2023-03-18T19:17:43.278Z,15.60
2023-03-18T19:20:29.589Z,15.60
2023-03-18T19:22:57.413Z,15.60
2023-03-18T19:25:27.611Z,15.70
2023-03-18T19:27:54.793Z,15.60
2023-03-18T19:30:23.686Z,15.60
2023-03-18T19:32:50.673Z,15.60
2023-03-18T19:35:17.380Z,15.60
2023-03-18T19:37:45.793Z,15.60
2023-03-18T19:40:31.262Z,15.60
2023-03-18T19:42:57.866Z,15.60
2023-03-18T19:45:24.530Z,15.50
2023-03-18T19:47:51.431Z,15.50
2023-03-18T19:50:20.212Z,15.50
2023-03-18T19:52:47.013Z,15.50
2023-03-18T19:55:15.649Z,15.50
2023-03-18T19:57:44.941Z,15.50
2023-03-18T20:00:24.272Z,15.40
2023-03-18T20:02:51.050Z,15.50
2023-03-18T20:05:23.769Z,15.50
2023-03-18T20:07:50.489Z,15.40
2023-03-18T20:10:19.013Z,15.40
2023-03-18T20:12:48.088Z,15.40
2023-03-18T20:15:24.646Z,15.40
2023-03-18T20:17:52.965Z,15.40
2023-03-18T20:20:23.823Z,15.40
2023-03-18T20:23:02.694Z,15.40
2023-03-18T20:25:31.771Z,15.40
2023-03-18T20:27:58.694Z,15.40
2023-03-18T20:30:31.127Z,15.40
2023-03-18T20:32:58.407Z,15.30
2023-03-18T20:35:27.498Z,15.40
2023-03-18T20:37:56.158Z,15.40
2023-03-18T20:40:26.453Z,15.40
2023-03-18T20:42:53.630Z,15.40
2023-03-18T20:45:21.533Z,15.40
2023-03-18T20:47:48.209Z,15.40
2023-03-18T20:50:21.074Z,15.40
2023-03-18T20:52:48.673Z,15.40
2023-03-18T20:55:27.835Z,15.40
2023-03-18T20:57:54.882Z,15.40
2023-03-18T21:00:25.253Z,15.40
2023-03-18T21:02:54.122Z,15.40
2023-03-18T21:05:21.711Z,15.30
2023-03-18T21:07:49.021Z,15.40
2023-03-18T21:10:18.614Z,15.30
2023-03-18T21:12:46.127Z,15.30
2023-03-18T21:15:25.299Z,15.30
2023-03-18T21:17:52.335Z,15.30
2023-03-18T21:20:22.876Z,15.30
2023-03-18T21:22:50.779Z,15.30
2023-03-18T21:25:23.049Z,15.30
2023-03-18T21:27:50.642Z,15.30
2023-03-18T21:30:19.242Z,15.30
2023-03-18T21:32:46.226Z,15.30
2023-03-18T21:35:19.071Z,15.30
2023-03-18T21:37:45.915Z,15.30
2023-03-18T21:40:15.266Z,15.30
2023-03-18T21:42:43.582Z,15.30
2023-03-18T21:45:12.407Z,15.20
2023-03-18T21:47:39.021Z,15.20
2023-03-18T21:50:06.823Z,15.20
2023-03-18T21:52:37.054Z,15.30
2023-03-18T21:55:05.922Z,15.20
2023-03-18T21:57:32.570Z,15.20
2023-03-18T21:59:59.148Z,15.20
2023-03-18T22:02:31.463Z,15.20
2023-03-18T22:05:04.827Z,15.20
2023-03-18T22:07:32.067Z,15.20
2023-03-18T22:10:00.573Z,15.20
2023-03-18T22:12:30.120Z,15.20
2023-03-18T22:14:57.577Z,15.20
2023-03-18T22:17:27.107Z,15.20
2023-03-18T22:19:54.917Z,15.10
2023-03-18T22:22:27.187Z,15.20
2023-03-18T22:24:53.787Z,15.20
2023-03-18T22:27:29.586Z,15.20
2023-03-18T22:29:58.339Z,15.10
2023-03-18T22:32:41.480Z,15.10
2023-03-18T22:35:20.687Z,15.10
2023-03-18T22:37:48.022Z,15.10
2023-03-18T22:40:20.766Z,15.10
2023-03-18T22:42:49.723Z,15.00
2023-03-18T22:45:31.345Z,15.00
2023-03-18T22:48:01.259Z,15.00
2023-03-18T22:50:31.240Z,15.00
2023-03-18T22:53:01.027Z,15.00
2023-03-18T22:55:34.639Z,15.00
2023-03-18T22:58:01.715Z,15.00
2023-03-18T23:00:38.276Z,15.00
2023-03-18T23:03:23.340Z,15.10
2023-03-18T23:05:52.308Z,15.00
2023-03-18T23:08:20.870Z,15.00
2023-03-18T23:10:49.620Z,15.00
2023-03-18T23:13:34.486Z,15.00
2023-03-18T23:16:04.075Z,15.00
2023-03-18T23:18:31.196Z,14.90
2023-03-18T23:20:57.858Z,15.00
2023-03-18T23:23:24.554Z,15.00
2023-03-18T23:25:52.401Z,15.00
2023-03-18T23:28:19.206Z,14.90
2023-03-18T23:30:49.320Z,14.90
2023-03-18T23:33:16.794Z,14.90
2023-03-18T23:35:44.162Z,14.90
2023-03-18T23:38:11.769Z,14.90
2023-03-18T23:40:38.646Z,14.90
2023-03-18T23:43:05.351Z,14.90
2023-03-18T23:45:32.420Z,14.90
2023-03-18T23:47:59.300Z,14.90
2023-03-18T23:50:26.159Z,14.90
2023-03-18T23:52:52.840Z,14.90
2023-03-18T23:55:33.703Z,14.90
2023-03-18T23:58:01.249Z,14.90
